sensor_id;sensor_type;location;lat;lon;timestamp;temperature;humidity
7666;DHT22;3875;46.562;4.898;2023-12-22T00:02:07;10.20;98.60
7666;DHT22;3875;46.562;4.898;2023-12-22T00:04:33;10.20;98.60
7666;DHT22;3875;46.562;4.898;2023-12-22T00:06:59;10.30;98.60
7666;DHT22;3875;46.562;4.898;2023-12-22T00:09:24;10.30;98.60
7666;DHT22;3875;46.562;4.898;2023-12-22T00:11:50;10.30;98.60
7666;DHT22;3875;46.562;4.898;2023-12-22T00:14:16;10.30;98.60
7666;DHT22;3875;46.562;4.898;2023-12-22T00:16:41;10.30;98.60
7666;DHT22;3875;46.562;4.898;2023-12-22T00:19:07;10.30;98.60
7666;DHT22;3875;46.562;4.898;2023-12-22T00:21:33;10.30;98.60
7666;DHT22;3875;46.562;4.898;2023-12-22T00:23:58;10.30;98.60
7666;DHT22;3875;46.562;4.898;2023-12-22T00:26:24;10.30;98.60
7666;DHT22;3875;46.562;4.898;2023-12-22T00:28:49;10.30;98.60
7666;DHT22;3875;46.562;4.898;2023-12-22T00:31:15;10.30;98.60
7666;DHT22;3875;46.562;4.898;2023-12-22T00:33:41;10.30;98.60
7666;DHT22;3875;46.562;4.898;2023-12-22T00:36:07;10.30;98.60
7666;DHT22;3875;46.562;4.898;2023-12-22T00:38:33;10.30;98.60
7666;DHT22;3875;46.562;4.898;2023-12-22T00:40:59;10.30;98.60
7666;DHT22;3875;46.562;4.898;2023-12-22T00:43:24;10.30;98.60
7666;DHT22;3875;46.562;4.898;2023-12-22T00:45:50;10.30;98.60
7666;DHT22;3875;46.562;4.898;2023-12-22T00:48:16;10.30;98.60
7666;DHT22;3875;46.562;4.898;2023-12-22T00:50:41;10.30;98.60
7666;DHT22;3875;46.562;4.898;2023-12-22T00:53:07;10.30;98.60
7666;DHT22;3875;46.562;4.898;2023-12-22T00:55:33;10.30;98.60
7666;DHT22;3875;46.562;4.898;2023-12-22T00:57:58;10.20;98.60
7666;DHT22;3875;46.562;4.898;2023-12-22T01:00:25;10.20;98.60
7666;DHT22;3875;46.562;4.898;2023-12-22T01:02:51;10.20;98.60
7666;DHT22;3875;46.562;4.898;2023-12-22T01:05:16;10.20;98.60
7666;DHT22;3875;46.562;4.898;2023-12-22T01:07:42;10.20;98.60
7666;DHT22;3875;46.562;4.898;2023-12-22T01:10:08;10.20;98.60
7666;DHT22;3875;46.562;4.898;2023-12-22T01:12:34;10.10;98.60
7666;DHT22;3875;46.562;4.898;2023-12-22T01:15:00;10.10;98.60
7666;DHT22;3875;46.562;4.898;2023-12-22T01:17:25;10.10;98.60
7666;DHT22;3875;46.562;4.898;2023-12-22T01:19:51;10.10;98.60
7666;DHT22;3875;46.562;4.898;2023-12-22T01:22:17;10.10;98.60
7666;DHT22;3875;46.562;4.898;2023-12-22T01:24:42;10.10;98.60
7666;DHT22;3875;46.562;4.898;2023-12-22T01:27:10;10.10;98.60
7666;DHT22;3875;46.562;4.898;2023-12-22T01:29:35;10.00;98.60
7666;DHT22;3875;46.562;4.898;2023-12-22T01:32:01;10.00;98.60
7666;DHT22;3875;46.562;4.898;2023-12-22T01:34:27;10.00;98.60
7666;DHT22;3875;46.562;4.898;2023-12-22T01:36:52;10.00;98.60
7666;DHT22;3875;46.562;4.898;2023-12-22T01:39:18;10.00;98.60
7666;DHT22;3875;46.562;4.898;2023-12-22T01:41:43;10.00;98.60
7666;DHT22;3875;46.562;4.898;2023-12-22T01:44:09;9.90;98.60
7666;DHT22;3875;46.562;4.898;2023-12-22T01:46:36;9.90;98.60
7666;DHT22;3875;46.562;4.898;2023-12-22T01:49:02;9.90;98.60
7666;DHT22;3875;46.562;4.898;2023-12-22T01:51:29;9.90;98.60
7666;DHT22;3875;46.562;4.898;2023-12-22T01:53:56;9.80;98.60
7666;DHT22;3875;46.562;4.898;2023-12-22T01:56:22;9.80;98.60
7666;DHT22;3875;46.562;4.898;2023-12-22T01:58:51;9.90;98.60
7666;DHT22;3875;46.562;4.898;2023-12-22T02:01:19;9.90;98.60
7666;DHT22;3875;46.562;4.898;2023-12-22T02:03:46;9.90;98.60
7666;DHT22;3875;46.562;4.898;2023-12-22T02:06:14;9.90;98.60
7666;DHT22;3875;46.562;4.898;2023-12-22T02:08:40;9.90;98.60
7666;DHT22;3875;46.562;4.898;2023-12-22T02:11:06;9.90;98.60
7666;DHT22;3875;46.562;4.898;2023-12-22T02:13:31;9.90;98.60
7666;DHT22;3875;46.562;4.898;2023-12-22T02:16:03;9.90;98.60
7666;DHT22;3875;46.562;4.898;2023-12-22T02:18:34;10.00;98.60
7666;DHT22;3875;46.562;4.898;2023-12-22T02:21:00;10.00;98.60
7666;DHT22;3875;46.562;4.898;2023-12-22T02:23:29;10.00;98.60
7666;DHT22;3875;46.562;4.898;2023-12-22T02:26:02;10.00;98.60
7666;DHT22;3875;46.562;4.898;2023-12-22T02:28:33;10.00;98.60
7666;DHT22;3875;46.562;4.898;2023-12-22T02:31:22;10.00;98.60
7666;DHT22;3875;46.562;4.898;2023-12-22T02:33:52;10.00;98.60
7666;DHT22;3875;46.562;4.898;2023-12-22T02:36:21;10.00;98.60
7666;DHT22;3875;46.562;4.898;2023-12-22T02:38:48;10.00;98.60
7666;DHT22;3875;46.562;4.898;2023-12-22T02:41:14;10.00;98.60
7666;DHT22;3875;46.562;4.898;2023-12-22T02:43:39;10.00;98.60
7666;DHT22;3875;46.562;4.898;2023-12-22T02:46:13;10.00;98.60
7666;DHT22;3875;46.562;4.898;2023-12-22T02:48:39;10.00;98.60
7666;DHT22;3875;46.562;4.898;2023-12-22T02:51:05;10.00;98.60
7666;DHT22;3875;46.562;4.898;2023-12-22T02:53:30;10.00;98.60
7666;DHT22;3875;46.562;4.898;2023-12-22T02:55:56;10.00;98.60
7666;DHT22;3875;46.562;4.898;2023-12-22T02:58:22;10.10;98.60
7666;DHT22;3875;46.562;4.898;2023-12-22T03:00:47;10.00;98.60
7666;DHT22;3875;46.562;4.898;2023-12-22T03:03:13;10.00;98.60
7666;DHT22;3875;46.562;4.898;2023-12-22T03:05:39;10.00;98.60
7666;DHT22;3875;46.562;4.898;2023-12-22T03:08:05;10.00;98.60
7666;DHT22;3875;46.562;4.898;2023-12-22T03:10:30;10.00;98.60
7666;DHT22;3875;46.562;4.898;2023-12-22T03:12:56;10.00;98.60
7666;DHT22;3875;46.562;4.898;2023-12-22T03:15:22;10.00;98.60
7666;DHT22;3875;46.562;4.898;2023-12-22T03:17:47;10.10;98.60
7666;DHT22;3875;46.562;4.898;2023-12-22T03:20:13;10.00;98.60
7666;DHT22;3875;46.562;4.898;2023-12-22T03:22:38;10.00;98.60
7666;DHT22;3875;46.562;4.898;2023-12-22T03:25:04;10.00;98.60
7666;DHT22;3875;46.562;4.898;2023-12-22T03:27:30;10.00;98.60
7666;DHT22;3875;46.562;4.898;2023-12-22T03:29:56;10.00;98.60
7666;DHT22;3875;46.562;4.898;2023-12-22T03:32:21;10.00;98.60
7666;DHT22;3875;46.562;4.898;2023-12-22T03:34:47;10.00;98.60
7666;DHT22;3875;46.562;4.898;2023-12-22T03:37:13;10.00;98.60
7666;DHT22;3875;46.562;4.898;2023-12-22T03:39:38;10.00;98.60
7666;DHT22;3875;46.562;4.898;2023-12-22T03:42:04;10.00;98.60
7666;DHT22;3875;46.562;4.898;2023-12-22T03:44:29;10.00;98.60
7666;DHT22;3875;46.562;4.898;2023-12-22T03:46:55;10.00;98.60
7666;DHT22;3875;46.562;4.898;2023-12-22T03:49:21;10.00;98.60
7666;DHT22;3875;46.562;4.898;2023-12-22T03:51:47;10.00;98.60
7666;DHT22;3875;46.562;4.898;2023-12-22T03:54:12;10.00;98.60
7666;DHT22;3875;46.562;4.898;2023-12-22T03:56:40;10.00;98.60
7666;DHT22;3875;46.562;4.898;2023-12-22T03:59:06;10.00;98.60
7666;DHT22;3875;46.562;4.898;2023-12-22T04:01:32;10.00;98.60
7666;DHT22;3875;46.562;4.898;2023-12-22T04:03:58;10.00;98.60
7666;DHT22;3875;46.562;4.898;2023-12-22T04:06:23;10.00;98.60
7666;DHT22;3875;46.562;4.898;2023-12-22T04:08:49;10.00;98.60
7666;DHT22;3875;46.562;4.898;2023-12-22T04:11:14;10.00;98.60
7666;DHT22;3875;46.562;4.898;2023-12-22T04:13:40;10.00;98.60
7666;DHT22;3875;46.562;4.898;2023-12-22T04:16:06;10.00;98.60
7666;DHT22;3875;46.562;4.898;2023-12-22T04:18:31;10.00;98.60
7666;DHT22;3875;46.562;4.898;2023-12-22T04:20:57;10.00;98.60
7666;DHT22;3875;46.562;4.898;2023-12-22T04:23:23;10.00;98.60
7666;DHT22;3875;46.562;4.898;2023-12-22T04:25:49;10.00;98.60
7666;DHT22;3875;46.562;4.898;2023-12-22T04:28:15;10.00;98.60
7666;DHT22;3875;46.562;4.898;2023-12-22T04:30:40;10.00;98.60
7666;DHT22;3875;46.562;4.898;2023-12-22T04:33:06;10.10;98.60
7666;DHT22;3875;46.562;4.898;2023-12-22T04:35:31;10.10;98.60
7666;DHT22;3875;46.562;4.898;2023-12-22T04:37:57;10.10;98.60
7666;DHT22;3875;46.562;4.898;2023-12-22T04:40:23;10.10;98.60
7666;DHT22;3875;46.562;4.898;2023-12-22T04:42:49;10.10;98.60
7666;DHT22;3875;46.562;4.898;2023-12-22T04:45:15;10.00;98.60
7666;DHT22;3875;46.562;4.898;2023-12-22T04:47:42;10.00;98.60
7666;DHT22;3875;46.562;4.898;2023-12-22T04:50:08;9.90;98.60
7666;DHT22;3875;46.562;4.898;2023-12-22T04:52:34;9.90;98.60
7666;DHT22;3875;46.562;4.898;2023-12-22T04:54:59;9.80;98.60
7666;DHT22;3875;46.562;4.898;2023-12-22T04:57:25;9.80;98.60
7666;DHT22;3875;46.562;4.898;2023-12-22T04:59:51;9.80;98.60
7666;DHT22;3875;46.562;4.898;2023-12-22T05:02:16;9.70;98.60
7666;DHT22;3875;46.562;4.898;2023-12-22T05:04:42;9.70;98.60
7666;DHT22;3875;46.562;4.898;2023-12-22T05:07:08;9.80;98.60
7666;DHT22;3875;46.562;4.898;2023-12-22T05:09:35;9.80;98.60
7666;DHT22;3875;46.562;4.898;2023-12-22T05:12:00;9.70;98.60
7666;DHT22;3875;46.562;4.898;2023-12-22T05:14:26;9.70;98.60
7666;DHT22;3875;46.562;4.898;2023-12-22T05:16:51;9.70;98.60
7666;DHT22;3875;46.562;4.898;2023-12-22T05:19:21;9.70;98.60
7666;DHT22;3875;46.562;4.898;2023-12-22T05:21:46;9.80;98.60
7666;DHT22;3875;46.562;4.898;2023-12-22T05:24:12;9.80;98.60
7666;DHT22;3875;46.562;4.898;2023-12-22T05:26:38;9.80;98.60
7666;DHT22;3875;46.562;4.898;2023-12-22T05:29:03;9.80;98.60
7666;DHT22;3875;46.562;4.898;2023-12-22T05:31:29;9.80;98.60
7666;DHT22;3875;46.562;4.898;2023-12-22T05:33:56;9.80;98.60
7666;DHT22;3875;46.562;4.898;2023-12-22T05:36:22;9.80;98.60
7666;DHT22;3875;46.562;4.898;2023-12-22T05:38:47;9.80;98.60
7666;DHT22;3875;46.562;4.898;2023-12-22T05:41:13;9.80;98.60
7666;DHT22;3875;46.562;4.898;2023-12-22T05:43:39;9.80;98.60
7666;DHT22;3875;46.562;4.898;2023-12-22T05:46:04;9.80;98.60
7666;DHT22;3875;46.562;4.898;2023-12-22T05:48:30;9.80;98.60
7666;DHT22;3875;46.562;4.898;2023-12-22T05:50:56;9.80;98.60
7666;DHT22;3875;46.562;4.898;2023-12-22T05:53:23;9.80;98.60
7666;DHT22;3875;46.562;4.898;2023-12-22T05:55:48;9.80;98.60
7666;DHT22;3875;46.562;4.898;2023-12-22T05:58:14;9.80;98.60
7666;DHT22;3875;46.562;4.898;2023-12-22T06:00:39;9.80;98.60
7666;DHT22;3875;46.562;4.898;2023-12-22T06:03:05;9.80;98.60
7666;DHT22;3875;46.562;4.898;2023-12-22T06:05:31;9.70;98.60
7666;DHT22;3875;46.562;4.898;2023-12-22T06:07:57;9.70;98.60
7666;DHT22;3875;46.562;4.898;2023-12-22T06:10:22;9.70;98.60
7666;DHT22;3875;46.562;4.898;2023-12-22T06:12:48;9.70;98.60
7666;DHT22;3875;46.562;4.898;2023-12-22T06:15:13;9.70;98.60
7666;DHT22;3875;46.562;4.898;2023-12-22T06:17:39;9.70;98.60
7666;DHT22;3875;46.562;4.898;2023-12-22T06:20:05;9.70;98.60
7666;DHT22;3875;46.562;4.898;2023-12-22T06:22:32;9.70;98.60
7666;DHT22;3875;46.562;4.898;2023-12-22T06:24:58;9.70;98.60
7666;DHT22;3875;46.562;4.898;2023-12-22T06:27:23;9.70;98.60
7666;DHT22;3875;46.562;4.898;2023-12-22T06:29:49;9.70;98.60
7666;DHT22;3875;46.562;4.898;2023-12-22T06:32:15;9.70;98.60
7666;DHT22;3875;46.562;4.898;2023-12-22T06:34:42;9.70;98.60
7666;DHT22;3875;46.562;4.898;2023-12-22T06:37:08;9.70;98.60
7666;DHT22;3875;46.562;4.898;2023-12-22T06:39:33;9.70;98.60
7666;DHT22;3875;46.562;4.898;2023-12-22T06:41:59;9.70;98.60
7666;DHT22;3875;46.562;4.898;2023-12-22T06:44:25;9.70;98.60
7666;DHT22;3875;46.562;4.898;2023-12-22T06:46:51;9.70;98.60
7666;DHT22;3875;46.562;4.898;2023-12-22T06:49:18;9.70;98.60
7666;DHT22;3875;46.562;4.898;2023-12-22T06:51:43;9.70;98.60
7666;DHT22;3875;46.562;4.898;2023-12-22T06:54:09;9.70;98.60
7666;DHT22;3875;46.562;4.898;2023-12-22T06:56:35;9.70;98.60
7666;DHT22;3875;46.562;4.898;2023-12-22T06:59:01;9.70;98.60
7666;DHT22;3875;46.562;4.898;2023-12-22T07:01:28;9.70;98.60
7666;DHT22;3875;46.562;4.898;2023-12-22T07:03:54;9.70;98.60
7666;DHT22;3875;46.562;4.898;2023-12-22T07:06:21;9.80;98.60
7666;DHT22;3875;46.562;4.898;2023-12-22T07:11:35;9.80;98.60
7666;DHT22;3875;46.562;4.898;2023-12-22T07:14:01;9.70;98.60
7666;DHT22;3875;46.562;4.898;2023-12-22T07:16:27;9.70;98.60
7666;DHT22;3875;46.562;4.898;2023-12-22T07:18:52;9.70;98.60
7666;DHT22;3875;46.562;4.898;2023-12-22T07:21:18;9.80;98.60
7666;DHT22;3875;46.562;4.898;2023-12-22T07:23:44;9.80;98.60
7666;DHT22;3875;46.562;4.898;2023-12-22T07:26:10;9.80;98.60
7666;DHT22;3875;46.562;4.898;2023-12-22T07:28:35;9.80;98.60
7666;DHT22;3875;46.562;4.898;2023-12-22T07:31:01;9.70;98.60
7666;DHT22;3875;46.562;4.898;2023-12-22T07:33:27;9.70;98.60
7666;DHT22;3875;46.562;4.898;2023-12-22T07:35:52;9.70;98.60
7666;DHT22;3875;46.562;4.898;2023-12-22T07:38:18;9.80;98.60
7666;DHT22;3875;46.562;4.898;2023-12-22T07:40:43;9.80;98.60
7666;DHT22;3875;46.562;4.898;2023-12-22T07:43:09;9.80;98.60
7666;DHT22;3875;46.562;4.898;2023-12-22T07:45:35;9.80;98.60
7666;DHT22;3875;46.562;4.898;2023-12-22T07:48:00;9.80;98.60
7666;DHT22;3875;46.562;4.898;2023-12-22T07:50:26;9.80;98.60
7666;DHT22;3875;46.562;4.898;2023-12-22T07:52:53;9.80;98.60
7666;DHT22;3875;46.562;4.898;2023-12-22T07:55:18;9.80;98.60
7666;DHT22;3875;46.562;4.898;2023-12-22T07:57:44;9.80;98.60
7666;DHT22;3875;46.562;4.898;2023-12-22T08:00:11;9.80;98.60
7666;DHT22;3875;46.562;4.898;2023-12-22T08:02:36;9.80;98.60
7666;DHT22;3875;46.562;4.898;2023-12-22T08:05:02;9.80;98.60
7666;DHT22;3875;46.562;4.898;2023-12-22T08:07:28;9.80;98.60
7666;DHT22;3875;46.562;4.898;2023-12-22T08:09:55;9.90;98.60
7666;DHT22;3875;46.562;4.898;2023-12-22T08:12:21;9.90;98.60
7666;DHT22;3875;46.562;4.898;2023-12-22T08:14:47;9.90;98.60
7666;DHT22;3875;46.562;4.898;2023-12-22T08:17:13;9.90;98.60
7666;DHT22;3875;46.562;4.898;2023-12-22T08:19:39;9.90;98.60
7666;DHT22;3875;46.562;4.898;2023-12-22T08:22:11;10.00;98.60
7666;DHT22;3875;46.562;4.898;2023-12-22T08:24:38;10.00;98.60
7666;DHT22;3875;46.562;4.898;2023-12-22T08:27:05;10.00;98.60
7666;DHT22;3875;46.562;4.898;2023-12-22T08:29:33;10.00;98.60
7666;DHT22;3875;46.562;4.898;2023-12-22T08:31:59;10.00;98.60
7666;DHT22;3875;46.562;4.898;2023-12-22T08:34:26;10.10;98.60
7666;DHT22;3875;46.562;4.898;2023-12-22T08:36:52;10.10;98.60
7666;DHT22;3875;46.562;4.898;2023-12-22T08:39:17;10.10;98.60
7666;DHT22;3875;46.562;4.898;2023-12-22T08:41:44;10.20;98.60
7666;DHT22;3875;46.562;4.898;2023-12-22T08:44:10;10.20;98.60
7666;DHT22;3875;46.562;4.898;2023-12-22T08:46:35;10.20;98.60
7666;DHT22;3875;46.562;4.898;2023-12-22T08:49:01;10.20;98.60
7666;DHT22;3875;46.562;4.898;2023-12-22T08:51:28;10.20;98.60
7666;DHT22;3875;46.562;4.898;2023-12-22T08:53:54;10.20;98.60
7666;DHT22;3875;46.562;4.898;2023-12-22T08:56:24;10.20;98.60
7666;DHT22;3875;46.562;4.898;2023-12-22T08:58:52;10.20;98.60
7666;DHT22;3875;46.562;4.898;2023-12-22T09:01:20;10.20;98.60
7666;DHT22;3875;46.562;4.898;2023-12-22T09:03:46;10.30;98.60
7666;DHT22;3875;46.562;4.898;2023-12-22T09:06:19;10.30;98.60
7666;DHT22;3875;46.562;4.898;2023-12-22T09:08:45;10.30;98.60
7666;DHT22;3875;46.562;4.898;2023-12-22T09:11:11;10.40;98.60
7666;DHT22;3875;46.562;4.898;2023-12-22T09:13:37;10.40;98.60
7666;DHT22;3875;46.562;4.898;2023-12-22T09:16:04;10.40;98.60
7666;DHT22;3875;46.562;4.898;2023-12-22T09:18:31;10.50;98.60
7666;DHT22;3875;46.562;4.898;2023-12-22T09:20:57;10.50;98.60
7666;DHT22;3875;46.562;4.898;2023-12-22T09:23:23;10.50;98.60
7666;DHT22;3875;46.562;4.898;2023-12-22T09:25:49;10.60;98.60
7666;DHT22;3875;46.562;4.898;2023-12-22T09:28:14;10.70;98.60
7666;DHT22;3875;46.562;4.898;2023-12-22T09:30:40;10.80;98.60
7666;DHT22;3875;46.562;4.898;2023-12-22T09:33:09;10.80;98.60
7666;DHT22;3875;46.562;4.898;2023-12-22T09:35:34;10.80;98.60
7666;DHT22;3875;46.562;4.898;2023-12-22T09:38:01;10.80;98.60
7666;DHT22;3875;46.562;4.898;2023-12-22T09:40:26;10.70;98.60
7666;DHT22;3875;46.562;4.898;2023-12-22T09:42:54;10.70;98.60
7666;DHT22;3875;46.562;4.898;2023-12-22T09:45:21;10.70;98.60
7666;DHT22;3875;46.562;4.898;2023-12-22T09:47:48;10.70;98.60
7666;DHT22;3875;46.562;4.898;2023-12-22T09:50:15;10.70;98.60
7666;DHT22;3875;46.562;4.898;2023-12-22T09:52:44;10.80;98.60
7666;DHT22;3875;46.562;4.898;2023-12-22T09:55:12;10.80;98.60
7666;DHT22;3875;46.562;4.898;2023-12-22T09:57:38;10.80;98.60
7666;DHT22;3875;46.562;4.898;2023-12-22T10:00:09;10.80;98.60
7666;DHT22;3875;46.562;4.898;2023-12-22T10:02:36;10.90;98.60
7666;DHT22;3875;46.562;4.898;2023-12-22T10:05:02;10.90;98.60
7666;DHT22;3875;46.562;4.898;2023-12-22T10:07:30;10.90;98.60
7666;DHT22;3875;46.562;4.898;2023-12-22T10:09:56;10.90;98.60
7666;DHT22;3875;46.562;4.898;2023-12-22T10:12:22;11.00;98.60
7666;DHT22;3875;46.562;4.898;2023-12-22T10:14:48;11.00;98.60
7666;DHT22;3875;46.562;4.898;2023-12-22T10:17:15;11.00;98.60
7666;DHT22;3875;46.562;4.898;2023-12-22T10:19:42;11.10;98.60
7666;DHT22;3875;46.562;4.898;2023-12-22T10:22:07;11.10;98.60
7666;DHT22;3875;46.562;4.898;2023-12-22T10:24:51;11.10;98.60
7666;DHT22;3875;46.562;4.898;2023-12-22T10:27:18;11.20;98.60
7666;DHT22;3875;46.562;4.898;2023-12-22T10:29:49;11.20;98.60
7666;DHT22;3875;46.562;4.898;2023-12-22T10:32:15;11.20;98.60
7666;DHT22;3875;46.562;4.898;2023-12-22T10:34:41;11.20;98.60
7666;DHT22;3875;46.562;4.898;2023-12-22T10:37:08;11.20;98.60
7666;DHT22;3875;46.562;4.898;2023-12-22T10:39:36;11.20;98.60
7666;DHT22;3875;46.562;4.898;2023-12-22T10:42:03;11.30;98.60
7666;DHT22;3875;46.562;4.898;2023-12-22T10:44:29;11.30;98.60
7666;DHT22;3875;46.562;4.898;2023-12-22T10:46:55;11.30;98.60
7666;DHT22;3875;46.562;4.898;2023-12-22T10:49:22;11.30;98.60
7666;DHT22;3875;46.562;4.898;2023-12-22T10:51:48;11.30;98.60
7666;DHT22;3875;46.562;4.898;2023-12-22T10:54:14;11.30;98.60
7666;DHT22;3875;46.562;4.898;2023-12-22T10:56:40;11.30;98.60
7666;DHT22;3875;46.562;4.898;2023-12-22T10:59:07;11.40;98.60
7666;DHT22;3875;46.562;4.898;2023-12-22T11:01:35;11.40;98.60
7666;DHT22;3875;46.562;4.898;2023-12-22T11:04:07;11.40;98.60
7666;DHT22;3875;46.562;4.898;2023-12-22T11:06:37;11.40;98.60
7666;DHT22;3875;46.562;4.898;2023-12-22T11:09:10;11.40;98.60
7666;DHT22;3875;46.562;4.898;2023-12-22T11:11:40;11.40;98.60
7666;DHT22;3875;46.562;4.898;2023-12-22T11:14:07;11.30;98.60
7666;DHT22;3875;46.562;4.898;2023-12-22T11:16:34;11.30;98.60
7666;DHT22;3875;46.562;4.898;2023-12-22T11:19:04;11.40;98.60
7666;DHT22;3875;46.562;4.898;2023-12-22T11:21:30;11.40;98.60
7666;DHT22;3875;46.562;4.898;2023-12-22T11:23:56;11.40;98.60
7666;DHT22;3875;46.562;4.898;2023-12-22T11:26:25;11.50;98.60
7666;DHT22;3875;46.562;4.898;2023-12-22T11:28:52;11.50;98.60
7666;DHT22;3875;46.562;4.898;2023-12-22T11:31:18;11.50;98.60
7666;DHT22;3875;46.562;4.898;2023-12-22T11:33:48;11.60;98.60
7666;DHT22;3875;46.562;4.898;2023-12-22T11:36:15;11.70;98.50
7666;DHT22;3875;46.562;4.898;2023-12-22T11:38:41;11.70;98.10
7666;DHT22;3875;46.562;4.898;2023-12-22T11:41:17;11.70;98.20
7666;DHT22;3875;46.562;4.898;2023-12-22T11:43:44;11.70;97.30
7666;DHT22;3875;46.562;4.898;2023-12-22T11:46:10;11.70;97.60
7666;DHT22;3875;46.562;4.898;2023-12-22T11:48:37;11.80;97.70
7666;DHT22;3875;46.562;4.898;2023-12-22T11:51:12;11.80;97.60
7666;DHT22;3875;46.562;4.898;2023-12-22T11:53:39;11.80;97.20
7666;DHT22;3875;46.562;4.898;2023-12-22T11:56:06;11.70;97.10
7666;DHT22;3875;46.562;4.898;2023-12-22T11:58:40;11.80;96.90
7666;DHT22;3875;46.562;4.898;2023-12-22T12:01:13;11.70;97.10
7666;DHT22;3875;46.562;4.898;2023-12-22T12:03:42;11.70;97.20
7666;DHT22;3875;46.562;4.898;2023-12-22T12:08:52;11.70;98.20
7666;DHT22;3875;46.562;4.898;2023-12-22T12:11:19;11.80;98.60
7666;DHT22;3875;46.562;4.898;2023-12-22T12:13:46;11.80;98.60
7666;DHT22;3875;46.562;4.898;2023-12-22T12:16:12;11.90;98.60
7666;DHT22;3875;46.562;4.898;2023-12-22T12:18:39;11.80;98.50
7666;DHT22;3875;46.562;4.898;2023-12-22T12:21:09;11.80;98.60
7666;DHT22;3875;46.562;4.898;2023-12-22T12:23:35;11.70;98.60
7666;DHT22;3875;46.562;4.898;2023-12-22T12:26:01;11.70;98.60
7666;DHT22;3875;46.562;4.898;2023-12-22T12:28:34;11.70;98.60
7666;DHT22;3875;46.562;4.898;2023-12-22T12:31:04;11.70;98.60
7666;DHT22;3875;46.562;4.898;2023-12-22T12:33:30;11.70;98.60
7666;DHT22;3875;46.562;4.898;2023-12-22T12:35:57;11.70;98.60
7666;DHT22;3875;46.562;4.898;2023-12-22T12:41:15;11.70;98.60
7666;DHT22;3875;46.562;4.898;2023-12-22T12:43:42;11.70;98.60
7666;DHT22;3875;46.562;4.898;2023-12-22T12:46:09;11.70;98.60
7666;DHT22;3875;46.562;4.898;2023-12-22T12:48:34;11.70;98.60
7666;DHT22;3875;46.562;4.898;2023-12-22T12:51:04;11.70;98.60
7666;DHT22;3875;46.562;4.898;2023-12-22T12:53:31;11.70;98.60
7666;DHT22;3875;46.562;4.898;2023-12-22T12:55:58;11.70;98.60
7666;DHT22;3875;46.562;4.898;2023-12-22T12:58:31;11.70;98.60
7666;DHT22;3875;46.562;4.898;2023-12-22T13:01:07;11.70;98.60
7666;DHT22;3875;46.562;4.898;2023-12-22T13:03:33;11.60;98.60
7666;DHT22;3875;46.562;4.898;2023-12-22T13:06:08;11.60;98.60
7666;DHT22;3875;46.562;4.898;2023-12-22T13:08:34;11.60;98.60
7666;DHT22;3875;46.562;4.898;2023-12-22T13:11:01;11.50;98.60
7666;DHT22;3875;46.562;4.898;2023-12-22T13:13:27;11.50;98.60
7666;DHT22;3875;46.562;4.898;2023-12-22T13:15:53;11.60;98.60
7666;DHT22;3875;46.562;4.898;2023-12-22T13:18:19;11.70;98.60
7666;DHT22;3875;46.562;4.898;2023-12-22T13:20:44;11.80;97.60
7666;DHT22;3875;46.562;4.898;2023-12-22T13:23:10;11.80;97.30
7666;DHT22;3875;46.562;4.898;2023-12-22T13:25:42;11.80;96.90
7666;DHT22;3875;46.562;4.898;2023-12-22T13:28:07;11.80;96.50
7666;DHT22;3875;46.562;4.898;2023-12-22T13:30:37;11.80;96.30
7666;DHT22;3875;46.562;4.898;2023-12-22T13:33:06;11.80;96.00
7666;DHT22;3875;46.562;4.898;2023-12-22T13:35:33;11.70;96.60
7666;DHT22;3875;46.562;4.898;2023-12-22T13:38:01;11.70;96.80
7666;DHT22;3875;46.562;4.898;2023-12-22T13:40:26;11.60;97.30
7666;DHT22;3875;46.562;4.898;2023-12-22T13:42:58;11.50;98.00
7666;DHT22;3875;46.562;4.898;2023-12-22T13:45:27;11.50;98.60
7666;DHT22;3875;46.562;4.898;2023-12-22T13:47:53;11.50;98.60
7666;DHT22;3875;46.562;4.898;2023-12-22T13:50:19;11.40;98.60
7666;DHT22;3875;46.562;4.898;2023-12-22T13:52:45;11.40;98.60
7666;DHT22;3875;46.562;4.898;2023-12-22T13:55:15;11.40;98.60
7666;DHT22;3875;46.562;4.898;2023-12-22T13:57:42;11.30;98.60
7666;DHT22;3875;46.562;4.898;2023-12-22T14:02:48;11.30;98.60
7666;DHT22;3875;46.562;4.898;2023-12-22T14:05:20;11.20;98.60
7666;DHT22;3875;46.562;4.898;2023-12-22T14:07:46;11.20;98.60
7666;DHT22;3875;46.562;4.898;2023-12-22T14:10:13;11.20;98.60
7666;DHT22;3875;46.562;4.898;2023-12-22T14:12:39;11.30;98.60
7666;DHT22;3875;46.562;4.898;2023-12-22T14:15:06;11.30;98.60
7666;DHT22;3875;46.562;4.898;2023-12-22T14:17:33;11.30;98.60
7666;DHT22;3875;46.562;4.898;2023-12-22T14:19:58;11.30;98.60
7666;DHT22;3875;46.562;4.898;2023-12-22T14:22:24;11.40;98.60
7666;DHT22;3875;46.562;4.898;2023-12-22T14:24:50;11.50;98.60
7666;DHT22;3875;46.562;4.898;2023-12-22T14:27:16;11.60;98.60
7666;DHT22;3875;46.562;4.898;2023-12-22T14:29:44;11.60;98.60
7666;DHT22;3875;46.562;4.898;2023-12-22T14:32:10;11.50;98.20
7666;DHT22;3875;46.562;4.898;2023-12-22T14:34:40;11.50;98.40
7666;DHT22;3875;46.562;4.898;2023-12-22T14:37:09;11.50;98.30
7666;DHT22;3875;46.562;4.898;2023-12-22T14:39:34;11.40;98.40
7666;DHT22;3875;46.562;4.898;2023-12-22T14:42:00;11.40;98.30
7666;DHT22;3875;46.562;4.898;2023-12-22T14:44:28;11.40;98.60
7666;DHT22;3875;46.562;4.898;2023-12-22T14:46:54;11.30;98.60
7666;DHT22;3875;46.562;4.898;2023-12-22T14:49:21;11.30;98.60
7666;DHT22;3875;46.562;4.898;2023-12-22T14:51:47;11.30;98.60
7666;DHT22;3875;46.562;4.898;2023-12-22T14:54:17;11.30;98.60
7666;DHT22;3875;46.562;4.898;2023-12-22T14:56:43;11.20;98.60
7666;DHT22;3875;46.562;4.898;2023-12-22T14:59:12;11.20;98.60
7666;DHT22;3875;46.562;4.898;2023-12-22T15:01:40;11.20;98.60
7666;DHT22;3875;46.562;4.898;2023-12-22T15:04:06;11.20;98.60
7666;DHT22;3875;46.562;4.898;2023-12-22T15:06:32;11.10;98.60
7666;DHT22;3875;46.562;4.898;2023-12-22T15:08:57;11.10;98.60
7666;DHT22;3875;46.562;4.898;2023-12-22T15:11:26;11.10;98.60
7666;DHT22;3875;46.562;4.898;2023-12-22T15:13:52;11.10;98.60
7666;DHT22;3875;46.562;4.898;2023-12-22T15:16:17;11.00;98.60
7666;DHT22;3875;46.562;4.898;2023-12-22T15:18:43;11.00;98.60
7666;DHT22;3875;46.562;4.898;2023-12-22T15:21:09;11.00;98.60
7666;DHT22;3875;46.562;4.898;2023-12-22T15:23:34;11.00;98.60
7666;DHT22;3875;46.562;4.898;2023-12-22T15:26:00;11.00;98.60
7666;DHT22;3875;46.562;4.898;2023-12-22T15:28:26;11.00;98.60
7666;DHT22;3875;46.562;4.898;2023-12-22T15:30:52;11.00;98.60
7666;DHT22;3875;46.562;4.898;2023-12-22T15:33:18;11.00;98.60
7666;DHT22;3875;46.562;4.898;2023-12-22T15:35:43;10.90;98.60
7666;DHT22;3875;46.562;4.898;2023-12-22T15:38:09;10.90;98.60
7666;DHT22;3875;46.562;4.898;2023-12-22T15:40:36;10.80;98.60
7666;DHT22;3875;46.562;4.898;2023-12-22T15:43:01;10.80;98.60
7666;DHT22;3875;46.562;4.898;2023-12-22T15:45:27;10.80;98.60
7666;DHT22;3875;46.562;4.898;2023-12-22T15:47:53;10.80;98.60
7666;DHT22;3875;46.562;4.898;2023-12-22T15:50:18;10.80;98.60
7666;DHT22;3875;46.562;4.898;2023-12-22T15:52:44;10.80;98.60
7666;DHT22;3875;46.562;4.898;2023-12-22T15:55:10;10.70;98.60
7666;DHT22;3875;46.562;4.898;2023-12-22T15:57:39;10.70;98.60
7666;DHT22;3875;46.562;4.898;2023-12-22T16:00:05;10.60;98.60
7666;DHT22;3875;46.562;4.898;2023-12-22T16:02:32;10.50;98.60
7666;DHT22;3875;46.562;4.898;2023-12-22T16:04:59;10.50;98.60
7666;DHT22;3875;46.562;4.898;2023-12-22T16:07:24;10.50;98.60
7666;DHT22;3875;46.562;4.898;2023-12-22T16:09:50;10.40;98.60
7666;DHT22;3875;46.562;4.898;2023-12-22T16:12:16;10.40;98.60